Terminal Aerodrome Forecast
Issued by NWS Portland, OR

Home | Current Version | Previous Version | Text Only | Print | Product List | Glossary On
Versions: 1 2 3 4 5 6 7 8 9 10 11 12 13 14 15 16 17 18 19 20 21 22
000
FTUS46 KPQR 221130
TAFTTD
TAF
KTTD 221130Z 2212/2312 09010KT P6SM -RA SCT025 BKN035
     FM221700 17010KT 6SM -RA OVC045
     FM222100 17010KT 6SM RA BKN028 OVC035
     FM230600 18010KT P6SM -RA OVC035=

USA.gov is the U.S. government's official web portal to all federal, state and local government web resources and services.